sensor_id;sensor_type;location;lat;lon;timestamp;P1;durP1;ratioP1;P2;durP2;ratioP2
9536;SDS011;4807;48.024;11.726;2023-02-13T00:03:05;33.37;;;13.57;;
9536;SDS011;4807;48.024;11.726;2023-02-13T00:06:14;27.87;;;13.67;;
9536;SDS011;4807;48.024;11.726;2023-02-13T00:09:22;31.47;;;13.70;;
9536;SDS011;4807;48.024;11.726;2023-02-13T00:12:30;27.20;;;12.57;;
9536;SDS011;4807;48.024;11.726;2023-02-13T00:15:38;24.60;;;13.63;;
9536;SDS011;4807;48.024;11.726;2023-02-13T00:18:48;28.83;;;14.37;;
9536;SDS011;4807;48.024;11.726;2023-02-13T00:21:56;29.80;;;13.77;;
9536;SDS011;4807;48.024;11.726;2023-02-13T00:25:06;32.27;;;14.73;;
9536;SDS011;4807;48.024;11.726;2023-02-13T00:28:15;30.83;;;14.03;;
9536;SDS011;4807;48.024;11.726;2023-02-13T00:31:24;29.07;;;14.83;;
9536;SDS011;4807;48.024;11.726;2023-02-13T00:34:34;28.13;;;14.30;;
9536;SDS011;4807;48.024;11.726;2023-02-13T00:37:42;23.13;;;13.17;;
9536;SDS011;4807;48.024;11.726;2023-02-13T00:40:50;27.03;;;13.60;;
9536;SDS011;4807;48.024;11.726;2023-02-13T00:43:59;18.90;;;11.60;;
9536;SDS011;4807;48.024;11.726;2023-02-13T00:47:09;32.33;;;13.03;;
9536;SDS011;4807;48.024;11.726;2023-02-13T00:50:21;20.93;;;11.53;;
9536;SDS011;4807;48.024;11.726;2023-02-13T00:53:29;23.87;;;11.43;;
9536;SDS011;4807;48.024;11.726;2023-02-13T00:56:38;23.30;;;10.93;;
9536;SDS011;4807;48.024;11.726;2023-02-13T00:59:47;16.93;;;10.27;;
9536;SDS011;4807;48.024;11.726;2023-02-13T01:02:56;16.67;;;10.07;;
9536;SDS011;4807;48.024;11.726;2023-02-13T01:06:06;31.80;;;10.03;;
9536;SDS011;4807;48.024;11.726;2023-02-13T01:09:15;18.50;;;9.93;;
9536;SDS011;4807;48.024;11.726;2023-02-13T01:12:23;19.77;;;10.17;;
9536;SDS011;4807;48.024;11.726;2023-02-13T01:15:31;11.87;;;8.67;;
9536;SDS011;4807;48.024;11.726;2023-02-13T01:18:40;18.20;;;10.37;;
9536;SDS011;4807;48.024;11.726;2023-02-13T01:21:49;25.60;;;10.90;;
9536;SDS011;4807;48.024;11.726;2023-02-13T01:24:57;16.70;;;10.03;;
9536;SDS011;4807;48.024;11.726;2023-02-13T01:28:09;15.67;;;9.13;;
9536;SDS011;4807;48.024;11.726;2023-02-13T01:31:17;20.07;;;9.53;;
9536;SDS011;4807;48.024;11.726;2023-02-13T01:34:28;16.17;;;10.10;;
9536;SDS011;4807;48.024;11.726;2023-02-13T01:37:38;14.47;;;9.17;;
9536;SDS011;4807;48.024;11.726;2023-02-13T01:40:48;15.43;;;9.10;;
9536;SDS011;4807;48.024;11.726;2023-02-13T01:43:58;15.93;;;9.80;;
9536;SDS011;4807;48.024;11.726;2023-02-13T01:47:08;13.63;;;9.07;;
9536;SDS011;4807;48.024;11.726;2023-02-13T01:50:20;27.47;;;8.90;;
9536;SDS011;4807;48.024;11.726;2023-02-13T01:53:38;15.87;;;8.90;;
9536;SDS011;4807;48.024;11.726;2023-02-13T01:56:52;12.77;;;8.57;;
9536;SDS011;4807;48.024;11.726;2023-02-13T02:00:06;18.60;;;10.17;;
9536;SDS011;4807;48.024;11.726;2023-02-13T02:03:25;13.17;;;8.37;;
9536;SDS011;4807;48.024;11.726;2023-02-13T02:06:44;13.97;;;9.40;;
9536;SDS011;4807;48.024;11.726;2023-02-13T02:10:08;12.77;;;8.47;;
9536;SDS011;4807;48.024;11.726;2023-02-13T02:13:23;14.33;;;9.03;;
9536;SDS011;4807;48.024;11.726;2023-02-13T02:16:33;12.13;;;8.27;;
9536;SDS011;4807;48.024;11.726;2023-02-13T02:19:44;13.87;;;8.43;;
9536;SDS011;4807;48.024;11.726;2023-02-13T02:23:15;13.67;;;9.23;;
9536;SDS011;4807;48.024;11.726;2023-02-13T02:31:22;11.67;;;7.53;;
9536;SDS011;4807;48.024;11.726;2023-02-13T02:35:08;12.67;;;8.27;;
9536;SDS011;4807;48.024;11.726;2023-02-13T02:43:49;13.13;;;8.13;;
9536;SDS011;4807;48.024;11.726;2023-02-13T02:47:12;14.37;;;8.20;;
9536;SDS011;4807;48.024;11.726;2023-02-13T02:50:49;10.33;;;7.43;;
9536;SDS011;4807;48.024;11.726;2023-02-13T02:54:07;20.60;;;8.77;;
9536;SDS011;4807;48.024;11.726;2023-02-13T02:57:41;15.53;;;8.80;;
9536;SDS011;4807;48.024;11.726;2023-02-13T03:01:13;12.20;;;8.07;;
9536;SDS011;4807;48.024;11.726;2023-02-13T03:04:46;10.57;;;7.77;;
9536;SDS011;4807;48.024;11.726;2023-02-13T03:08:17;11.97;;;8.73;;
9536;SDS011;4807;48.024;11.726;2023-02-13T03:11:47;12.80;;;7.60;;
9536;SDS011;4807;48.024;11.726;2023-02-13T03:15:17;12.30;;;8.47;;
9536;SDS011;4807;48.024;11.726;2023-02-13T03:18:26;10.40;;;7.83;;
9536;SDS011;4807;48.024;11.726;2023-02-13T03:21:58;13.20;;;8.47;;
9536;SDS011;4807;48.024;11.726;2023-02-13T03:25:28;12.77;;;8.27;;
9536;SDS011;4807;48.024;11.726;2023-02-13T03:28:48;29.67;;;8.60;;
9536;SDS011;4807;48.024;11.726;2023-02-13T03:32:27;14.10;;;7.60;;
9536;SDS011;4807;48.024;11.726;2023-02-13T03:35:49;13.67;;;8.43;;
9536;SDS011;4807;48.024;11.726;2023-02-13T03:39:31;16.80;;;8.73;;
9536;SDS011;4807;48.024;11.726;2023-02-13T03:42:54;12.60;;;8.43;;
9536;SDS011;4807;48.024;11.726;2023-02-13T03:46:13;21.43;;;8.57;;
9536;SDS011;4807;48.024;11.726;2023-02-13T03:49:25;14.17;;;8.93;;
9536;SDS011;4807;48.024;11.726;2023-02-13T03:52:58;14.40;;;7.60;;
9536;SDS011;4807;48.024;11.726;2023-02-13T03:56:14;9.87;;;7.57;;
9536;SDS011;4807;48.024;11.726;2023-02-13T03:59:45;13.50;;;8.70;;
9536;SDS011;4807;48.024;11.726;2023-02-13T04:02:56;15.43;;;10.03;;
9536;SDS011;4807;48.024;11.726;2023-02-13T04:06:11;21.80;;;9.40;;
9536;SDS011;4807;48.024;11.726;2023-02-13T04:09:25;14.87;;;9.20;;
9536;SDS011;4807;48.024;11.726;2023-02-13T04:12:39;13.17;;;8.70;;
9536;SDS011;4807;48.024;11.726;2023-02-13T04:16:00;13.03;;;9.27;;
9536;SDS011;4807;48.024;11.726;2023-02-13T04:19:16;14.43;;;9.53;;
9536;SDS011;4807;48.024;11.726;2023-02-13T04:22:27;14.43;;;8.97;;
9536;SDS011;4807;48.024;11.726;2023-02-13T04:25:35;13.27;;;9.43;;
9536;SDS011;4807;48.024;11.726;2023-02-13T04:28:48;13.17;;;8.73;;
9536;SDS011;4807;48.024;11.726;2023-02-13T04:31:56;14.23;;;9.27;;
9536;SDS011;4807;48.024;11.726;2023-02-13T04:35:05;13.80;;;8.67;;
9536;SDS011;4807;48.024;11.726;2023-02-13T04:38:14;13.27;;;9.00;;
9536;SDS011;4807;48.024;11.726;2023-02-13T04:41:22;14.77;;;9.97;;
9536;SDS011;4807;48.024;11.726;2023-02-13T04:44:32;11.23;;;8.97;;
9536;SDS011;4807;48.024;11.726;2023-02-13T04:47:40;13.43;;;8.50;;
9536;SDS011;4807;48.024;11.726;2023-02-13T04:50:49;13.27;;;9.23;;
9536;SDS011;4807;48.024;11.726;2023-02-13T04:53:58;13.50;;;9.33;;
9536;SDS011;4807;48.024;11.726;2023-02-13T04:57:06;16.60;;;9.80;;
9536;SDS011;4807;48.024;11.726;2023-02-13T05:00:17;14.23;;;9.80;;
9536;SDS011;4807;48.024;11.726;2023-02-13T05:03:26;47.90;;;22.80;;
9536;SDS011;4807;48.024;11.726;2023-02-13T05:06:34;16.77;;;11.03;;
9536;SDS011;4807;48.024;11.726;2023-02-13T05:09:43;15.43;;;9.63;;
9536;SDS011;4807;48.024;11.726;2023-02-13T05:12:51;15.00;;;10.00;;
9536;SDS011;4807;48.024;11.726;2023-02-13T05:16:01;17.13;;;10.40;;
9536;SDS011;4807;48.024;11.726;2023-02-13T05:19:10;15.90;;;10.40;;
9536;SDS011;4807;48.024;11.726;2023-02-13T05:22:18;15.40;;;10.10;;
9536;SDS011;4807;48.024;11.726;2023-02-13T05:25:44;18.57;;;10.10;;
9536;SDS011;4807;48.024;11.726;2023-02-13T05:28:52;20.43;;;10.27;;
9536;SDS011;4807;48.024;11.726;2023-02-13T05:32:19;19.07;;;11.63;;
9536;SDS011;4807;48.024;11.726;2023-02-13T05:35:27;16.80;;;11.53;;
9536;SDS011;4807;48.024;11.726;2023-02-13T05:38:35;18.77;;;12.23;;
9536;SDS011;4807;48.024;11.726;2023-02-13T05:41:44;19.23;;;11.97;;
9536;SDS011;4807;48.024;11.726;2023-02-13T05:44:55;14.40;;;11.10;;
9536;SDS011;4807;48.024;11.726;2023-02-13T05:48:05;18.77;;;12.07;;
9536;SDS011;4807;48.024;11.726;2023-02-13T05:51:13;16.23;;;10.60;;
9536;SDS011;4807;48.024;11.726;2023-02-13T05:54:21;19.27;;;11.97;;
9536;SDS011;4807;48.024;11.726;2023-02-13T05:57:30;17.87;;;11.53;;
9536;SDS011;4807;48.024;11.726;2023-02-13T06:00:40;17.10;;;10.43;;
9536;SDS011;4807;48.024;11.726;2023-02-13T06:03:49;18.37;;;11.40;;
9536;SDS011;4807;48.024;11.726;2023-02-13T06:06:58;19.20;;;10.97;;
9536;SDS011;4807;48.024;11.726;2023-02-13T06:10:06;22.27;;;12.10;;
9536;SDS011;4807;48.024;11.726;2023-02-13T06:13:15;19.60;;;11.70;;
9536;SDS011;4807;48.024;11.726;2023-02-13T06:16:24;21.70;;;11.80;;
9536;SDS011;4807;48.024;11.726;2023-02-13T06:19:34;19.30;;;11.27;;
9536;SDS011;4807;48.024;11.726;2023-02-13T06:22:42;19.17;;;12.47;;
9536;SDS011;4807;48.024;11.726;2023-02-13T06:25:54;20.60;;;13.00;;
9536;SDS011;4807;48.024;11.726;2023-02-13T06:29:02;19.70;;;11.87;;
9536;SDS011;4807;48.024;11.726;2023-02-13T06:32:12;20.57;;;12.57;;
9536;SDS011;4807;48.024;11.726;2023-02-13T06:35:21;24.23;;;12.63;;
9536;SDS011;4807;48.024;11.726;2023-02-13T06:38:31;22.40;;;13.30;;
9536;SDS011;4807;48.024;11.726;2023-02-13T06:41:39;23.33;;;12.63;;
9536;SDS011;4807;48.024;11.726;2023-02-13T06:44:47;21.10;;;12.47;;
9536;SDS011;4807;48.024;11.726;2023-02-13T06:47:55;20.83;;;12.50;;
9536;SDS011;4807;48.024;11.726;2023-02-13T06:51:05;20.43;;;12.10;;
9536;SDS011;4807;48.024;11.726;2023-02-13T06:54:13;22.40;;;13.17;;
9536;SDS011;4807;48.024;11.726;2023-02-13T06:57:22;21.70;;;11.47;;
9536;SDS011;4807;48.024;11.726;2023-02-13T07:00:30;22.70;;;13.00;;
9536;SDS011;4807;48.024;11.726;2023-02-13T07:03:39;19.93;;;11.73;;
9536;SDS011;4807;48.024;11.726;2023-02-13T07:06:48;19.47;;;12.80;;
9536;SDS011;4807;48.024;11.726;2023-02-13T07:09:57;20.03;;;11.77;;
9536;SDS011;4807;48.024;11.726;2023-02-13T07:13:05;21.03;;;12.60;;
9536;SDS011;4807;48.024;11.726;2023-02-13T07:16:14;18.97;;;11.77;;
9536;SDS011;4807;48.024;11.726;2023-02-13T07:19:23;23.57;;;12.23;;
9536;SDS011;4807;48.024;11.726;2023-02-13T07:22:33;21.80;;;12.13;;
9536;SDS011;4807;48.024;11.726;2023-02-13T07:25:41;20.17;;;12.43;;
9536;SDS011;4807;48.024;11.726;2023-02-13T07:28:49;19.20;;;12.03;;
9536;SDS011;4807;48.024;11.726;2023-02-13T07:32:15;18.33;;;11.93;;
9536;SDS011;4807;48.024;11.726;2023-02-13T07:35:24;16.90;;;10.93;;
9536;SDS011;4807;48.024;11.726;2023-02-13T07:38:33;20.80;;;12.07;;
9536;SDS011;4807;48.024;11.726;2023-02-13T07:41:42;18.87;;;11.30;;
9536;SDS011;4807;48.024;11.726;2023-02-13T07:44:54;18.50;;;10.97;;
9536;SDS011;4807;48.024;11.726;2023-02-13T07:48:02;19.73;;;12.17;;
9536;SDS011;4807;48.024;11.726;2023-02-13T07:51:10;16.13;;;10.90;;
9536;SDS011;4807;48.024;11.726;2023-02-13T07:54:22;15.40;;;10.13;;
9536;SDS011;4807;48.024;11.726;2023-02-13T07:57:31;17.13;;;10.90;;
9536;SDS011;4807;48.024;11.726;2023-02-13T08:00:40;15.57;;;11.00;;
9536;SDS011;4807;48.024;11.726;2023-02-13T08:03:49;16.47;;;10.83;;
9536;SDS011;4807;48.024;11.726;2023-02-13T08:06:57;17.33;;;11.43;;
9536;SDS011;4807;48.024;11.726;2023-02-13T08:10:07;17.43;;;10.83;;
9536;SDS011;4807;48.024;11.726;2023-02-13T08:13:37;19.63;;;11.27;;
9536;SDS011;4807;48.024;11.726;2023-02-13T08:16:46;17.93;;;11.43;;
9536;SDS011;4807;48.024;11.726;2023-02-13T08:19:54;18.53;;;11.73;;
9536;SDS011;4807;48.024;11.726;2023-02-13T08:23:03;18.87;;;11.20;;
9536;SDS011;4807;48.024;11.726;2023-02-13T08:26:15;18.93;;;11.00;;
9536;SDS011;4807;48.024;11.726;2023-02-13T08:29:23;19.97;;;11.57;;
9536;SDS011;4807;48.024;11.726;2023-02-13T08:32:31;17.63;;;11.73;;
9536;SDS011;4807;48.024;11.726;2023-02-13T08:35:57;20.47;;;11.13;;
9536;SDS011;4807;48.024;11.726;2023-02-13T08:39:05;19.30;;;11.40;;
9536;SDS011;4807;48.024;11.726;2023-02-13T08:42:17;17.27;;;10.90;;
9536;SDS011;4807;48.024;11.726;2023-02-13T08:45:29;20.37;;;11.50;;
9536;SDS011;4807;48.024;11.726;2023-02-13T08:48:37;16.80;;;11.17;;
9536;SDS011;4807;48.024;11.726;2023-02-13T08:51:47;16.67;;;10.33;;
9536;SDS011;4807;48.024;11.726;2023-02-13T08:54:56;16.53;;;10.90;;
9536;SDS011;4807;48.024;11.726;2023-02-13T08:58:06;16.97;;;10.93;;
9536;SDS011;4807;48.024;11.726;2023-02-13T09:01:15;19.20;;;11.47;;
9536;SDS011;4807;48.024;11.726;2023-02-13T09:04:24;17.23;;;11.13;;
9536;SDS011;4807;48.024;11.726;2023-02-13T09:07:33;17.13;;;11.10;;
9536;SDS011;4807;48.024;11.726;2023-02-13T09:10:41;18.87;;;10.37;;
9536;SDS011;4807;48.024;11.726;2023-02-13T09:13:52;16.37;;;10.17;;
9536;SDS011;4807;48.024;11.726;2023-02-13T09:17:02;18.50;;;11.27;;
9536;SDS011;4807;48.024;11.726;2023-02-13T09:20:11;18.20;;;10.93;;
9536;SDS011;4807;48.024;11.726;2023-02-13T09:23:20;20.13;;;11.63;;
9536;SDS011;4807;48.024;11.726;2023-02-13T09:26:29;16.37;;;11.03;;
9536;SDS011;4807;48.024;11.726;2023-02-13T09:29:38;19.50;;;10.07;;
9536;SDS011;4807;48.024;11.726;2023-02-13T09:32:49;18.20;;;11.13;;
9536;SDS011;4807;48.024;11.726;2023-02-13T09:35:58;21.03;;;11.27;;
9536;SDS011;4807;48.024;11.726;2023-02-13T09:39:12;19.03;;;11.43;;
9536;SDS011;4807;48.024;11.726;2023-02-13T09:42:21;15.97;;;10.03;;
9536;SDS011;4807;48.024;11.726;2023-02-13T09:45:36;15.30;;;10.73;;
9536;SDS011;4807;48.024;11.726;2023-02-13T09:48:47;18.90;;;11.10;;
9536;SDS011;4807;48.024;11.726;2023-02-13T09:52:01;16.33;;;10.23;;
9536;SDS011;4807;48.024;11.726;2023-02-13T09:55:13;15.17;;;9.27;;
9536;SDS011;4807;48.024;11.726;2023-02-13T09:58:32;17.53;;;9.90;;
9536;SDS011;4807;48.024;11.726;2023-02-13T10:01:54;15.40;;;9.40;;
9536;SDS011;4807;48.024;11.726;2023-02-13T10:05:16;14.27;;;9.83;;
9536;SDS011;4807;48.024;11.726;2023-02-13T10:08:50;17.50;;;9.20;;
9536;SDS011;4807;48.024;11.726;2023-02-13T10:12:18;16.27;;;9.63;;
9536;SDS011;4807;48.024;11.726;2023-02-13T10:15:55;16.17;;;9.73;;
9536;SDS011;4807;48.024;11.726;2023-02-13T10:19:21;13.50;;;9.33;;
9536;SDS011;4807;48.024;11.726;2023-02-13T10:22:42;15.33;;;10.40;;
9536;SDS011;4807;48.024;11.726;2023-02-13T10:26:00;15.77;;;9.40;;
9536;SDS011;4807;48.024;11.726;2023-02-13T10:29:14;15.13;;;8.90;;
9536;SDS011;4807;48.024;11.726;2023-02-13T10:32:48;14.73;;;9.73;;
9536;SDS011;4807;48.024;11.726;2023-02-13T10:36:21;14.53;;;9.93;;
9536;SDS011;4807;48.024;11.726;2023-02-13T10:39:34;13.27;;;8.73;;
9536;SDS011;4807;48.024;11.726;2023-02-13T10:42:43;11.93;;;8.73;;
9536;SDS011;4807;48.024;11.726;2023-02-13T10:46:01;13.57;;;8.77;;
9536;SDS011;4807;48.024;11.726;2023-02-13T10:49:33;13.97;;;9.13;;
9536;SDS011;4807;48.024;11.726;2023-02-13T10:53:04;13.60;;;9.13;;
9536;SDS011;4807;48.024;11.726;2023-02-13T10:56:37;15.60;;;9.80;;
9536;SDS011;4807;48.024;11.726;2023-02-13T10:59:56;12.83;;;8.57;;
9536;SDS011;4807;48.024;11.726;2023-02-13T11:03:18;13.73;;;9.40;;
9536;SDS011;4807;48.024;11.726;2023-02-13T11:06:28;15.80;;;9.70;;
9536;SDS011;4807;48.024;11.726;2023-02-13T11:09:39;14.57;;;10.10;;
9536;SDS011;4807;48.024;11.726;2023-02-13T11:12:51;14.97;;;10.27;;
9536;SDS011;4807;48.024;11.726;2023-02-13T11:16:01;14.57;;;10.10;;
9536;SDS011;4807;48.024;11.726;2023-02-13T11:19:15;14.10;;;9.07;;
9536;SDS011;4807;48.024;11.726;2023-02-13T11:22:29;13.43;;;9.03;;
9536;SDS011;4807;48.024;11.726;2023-02-13T11:25:42;14.00;;;9.30;;
9536;SDS011;4807;48.024;11.726;2023-02-13T11:29:04;13.50;;;9.50;;
9536;SDS011;4807;48.024;11.726;2023-02-13T11:32:25;14.70;;;9.30;;
9536;SDS011;4807;48.024;11.726;2023-02-13T11:35:36;14.67;;;9.17;;
9536;SDS011;4807;48.024;11.726;2023-02-13T11:38:45;11.43;;;7.93;;
9536;SDS011;4807;48.024;11.726;2023-02-13T11:42:10;12.80;;;8.90;;
9536;SDS011;4807;48.024;11.726;2023-02-13T11:45:22;12.57;;;8.20;;
9536;SDS011;4807;48.024;11.726;2023-02-13T11:48:32;12.77;;;8.40;;
9536;SDS011;4807;48.024;11.726;2023-02-13T11:51:43;12.23;;;8.90;;
9536;SDS011;4807;48.024;11.726;2023-02-13T11:54:54;16.23;;;9.80;;
9536;SDS011;4807;48.024;11.726;2023-02-13T11:58:21;13.67;;;9.60;;
9536;SDS011;4807;48.024;11.726;2023-02-13T12:01:33;13.53;;;9.40;;
9536;SDS011;4807;48.024;11.726;2023-02-13T12:04:41;12.80;;;8.40;;
9536;SDS011;4807;48.024;11.726;2023-02-13T12:07:51;12.10;;;8.70;;
9536;SDS011;4807;48.024;11.726;2023-02-13T12:11:08;14.00;;;9.33;;
9536;SDS011;4807;48.024;11.726;2023-02-13T12:14:30;14.13;;;8.83;;
9536;SDS011;4807;48.024;11.726;2023-02-13T12:17:48;14.07;;;9.43;;
9536;SDS011;4807;48.024;11.726;2023-02-13T12:21:14;13.33;;;9.20;;
9536;SDS011;4807;48.024;11.726;2023-02-13T12:24:50;11.37;;;7.47;;
9536;SDS011;4807;48.024;11.726;2023-02-13T12:28:45;13.30;;;8.80;;
9536;SDS011;4807;48.024;11.726;2023-02-13T12:32:19;11.43;;;8.33;;
9536;SDS011;4807;48.024;11.726;2023-02-13T12:35:40;13.53;;;8.87;;
9536;SDS011;4807;48.024;11.726;2023-02-13T12:39:03;11.67;;;8.37;;
9536;SDS011;4807;48.024;11.726;2023-02-13T12:42:28;13.27;;;8.70;;
9536;SDS011;4807;48.024;11.726;2023-02-13T12:45:50;12.67;;;9.07;;
9536;SDS011;4807;48.024;11.726;2023-02-13T12:49:11;12.23;;;8.07;;
9536;SDS011;4807;48.024;11.726;2023-02-13T12:52:45;11.83;;;8.13;;
9536;SDS011;4807;48.024;11.726;2023-02-13T12:56:25;13.43;;;9.33;;
9536;SDS011;4807;48.024;11.726;2023-02-13T13:00:09;13.27;;;9.10;;
9536;SDS011;4807;48.024;11.726;2023-02-13T13:03:38;11.27;;;8.13;;
9536;SDS011;4807;48.024;11.726;2023-02-13T13:07:07;11.57;;;8.17;;
9536;SDS011;4807;48.024;11.726;2023-02-13T13:10:51;12.83;;;8.77;;
9536;SDS011;4807;48.024;11.726;2023-02-13T13:14:16;12.40;;;8.53;;
9536;SDS011;4807;48.024;11.726;2023-02-13T13:17:39;8.73;;;7.10;;
9536;SDS011;4807;48.024;11.726;2023-02-13T13:21:13;14.73;;;8.77;;
9536;SDS011;4807;48.024;11.726;2023-02-13T13:24:45;11.83;;;8.23;;
9536;SDS011;4807;48.024;11.726;2023-02-13T13:28:12;13.10;;;8.80;;
9536;SDS011;4807;48.024;11.726;2023-02-13T13:31:25;10.97;;;7.93;;
9536;SDS011;4807;48.024;11.726;2023-02-13T13:34:37;10.03;;;8.20;;
9536;SDS011;4807;48.024;11.726;2023-02-13T13:37:49;16.63;;;9.90;;
9536;SDS011;4807;48.024;11.726;2023-02-13T13:41:13;13.57;;;8.50;;
9536;SDS011;4807;48.024;11.726;2023-02-13T13:44:36;15.67;;;10.17;;
9536;SDS011;4807;48.024;11.726;2023-02-13T13:51:43;17.10;;;10.50;;
9536;SDS011;4807;48.024;11.726;2023-02-13T13:54:52;14.47;;;10.30;;
9536;SDS011;4807;48.024;11.726;2023-02-13T13:58:03;16.57;;;10.03;;
9536;SDS011;4807;48.024;11.726;2023-02-13T14:01:15;16.03;;;10.17;;
9536;SDS011;4807;48.024;11.726;2023-02-13T14:04:36;16.60;;;10.50;;
9536;SDS011;4807;48.024;11.726;2023-02-13T14:07:47;15.33;;;9.73;;
9536;SDS011;4807;48.024;11.726;2023-02-13T14:10:59;17.37;;;11.60;;
9536;SDS011;4807;48.024;11.726;2023-02-13T14:17:59;15.17;;;9.73;;
9536;SDS011;4807;48.024;11.726;2023-02-13T14:21:20;16.00;;;10.77;;
9536;SDS011;4807;48.024;11.726;2023-02-13T14:24:31;16.90;;;11.00;;
9536;SDS011;4807;48.024;11.726;2023-02-13T14:27:41;14.80;;;10.73;;
9536;SDS011;4807;48.024;11.726;2023-02-13T14:30:51;18.30;;;11.27;;
9536;SDS011;4807;48.024;11.726;2023-02-13T14:34:17;16.63;;;10.97;;
9536;SDS011;4807;48.024;11.726;2023-02-13T14:37:35;16.33;;;10.23;;
9536;SDS011;4807;48.024;11.726;2023-02-13T14:40:53;15.37;;;11.00;;
9536;SDS011;4807;48.024;11.726;2023-02-13T14:44:03;15.23;;;10.90;;
9536;SDS011;4807;48.024;11.726;2023-02-13T14:47:13;17.27;;;10.87;;
9536;SDS011;4807;48.024;11.726;2023-02-13T14:50:29;15.63;;;9.57;;
9536;SDS011;4807;48.024;11.726;2023-02-13T14:53:52;18.40;;;11.23;;
9536;SDS011;4807;48.024;11.726;2023-02-13T14:57:09;14.73;;;10.10;;
9536;SDS011;4807;48.024;11.726;2023-02-13T15:00:25;16.57;;;11.87;;
9536;SDS011;4807;48.024;11.726;2023-02-13T15:03:45;18.13;;;11.83;;
9536;SDS011;4807;48.024;11.726;2023-02-13T15:07:01;18.57;;;11.60;;
9536;SDS011;4807;48.024;11.726;2023-02-13T15:10:26;19.53;;;12.57;;
9536;SDS011;4807;48.024;11.726;2023-02-13T15:13:47;18.43;;;11.93;;
9536;SDS011;4807;48.024;11.726;2023-02-13T15:16:57;18.17;;;12.27;;
9536;SDS011;4807;48.024;11.726;2023-02-13T15:20:19;20.00;;;12.50;;
9536;SDS011;4807;48.024;11.726;2023-02-13T15:23:34;20.73;;;12.83;;
9536;SDS011;4807;48.024;11.726;2023-02-13T15:26:43;16.53;;;11.97;;
9536;SDS011;4807;48.024;11.726;2023-02-13T15:30:16;17.93;;;11.97;;
9536;SDS011;4807;48.024;11.726;2023-02-13T15:33:31;17.50;;;11.77;;
9536;SDS011;4807;48.024;11.726;2023-02-13T15:36:50;19.83;;;11.57;;
9536;SDS011;4807;48.024;11.726;2023-02-13T15:40:13;20.60;;;12.07;;
9536;SDS011;4807;48.024;11.726;2023-02-13T15:43:33;17.63;;;12.40;;
9536;SDS011;4807;48.024;11.726;2023-02-13T15:46:45;19.70;;;11.97;;
9536;SDS011;4807;48.024;11.726;2023-02-13T15:49:57;17.17;;;11.93;;
9536;SDS011;4807;48.024;11.726;2023-02-13T15:53:11;19.80;;;12.43;;
9536;SDS011;4807;48.024;11.726;2023-02-13T15:56:24;21.73;;;13.27;;
9536;SDS011;4807;48.024;11.726;2023-02-13T15:59:35;16.47;;;11.67;;
9536;SDS011;4807;48.024;11.726;2023-02-13T16:02:46;17.03;;;11.70;;
9536;SDS011;4807;48.024;11.726;2023-02-13T16:05:56;16.40;;;11.57;;
9536;SDS011;4807;48.024;11.726;2023-02-13T16:09:20;18.83;;;12.13;;
9536;SDS011;4807;48.024;11.726;2023-02-13T16:12:32;16.43;;;11.57;;
9536;SDS011;4807;48.024;11.726;2023-02-13T16:15:41;18.83;;;12.87;;
9536;SDS011;4807;48.024;11.726;2023-02-13T16:18:51;19.73;;;13.10;;
9536;SDS011;4807;48.024;11.726;2023-02-13T16:22:02;19.63;;;12.33;;
9536;SDS011;4807;48.024;11.726;2023-02-13T16:25:34;26.10;;;15.00;;
9536;SDS011;4807;48.024;11.726;2023-02-13T16:28:46;20.93;;;13.17;;
9536;SDS011;4807;48.024;11.726;2023-02-13T16:32:01;19.30;;;13.23;;
9536;SDS011;4807;48.024;11.726;2023-02-13T16:35:28;20.57;;;13.73;;
9536;SDS011;4807;48.024;11.726;2023-02-13T16:38:44;22.13;;;13.07;;
9536;SDS011;4807;48.024;11.726;2023-02-13T16:41:55;18.00;;;12.30;;
9536;SDS011;4807;48.024;11.726;2023-02-13T16:45:20;19.87;;;12.80;;
9536;SDS011;4807;48.024;11.726;2023-02-13T16:48:29;22.63;;;13.83;;
9536;SDS011;4807;48.024;11.726;2023-02-13T16:51:38;20.90;;;12.70;;
9536;SDS011;4807;48.024;11.726;2023-02-13T16:54:51;21.77;;;14.50;;
9536;SDS011;4807;48.024;11.726;2023-02-13T16:58:04;21.23;;;12.93;;
9536;SDS011;4807;48.024;11.726;2023-02-13T17:01:13;21.53;;;14.10;;
9536;SDS011;4807;48.024;11.726;2023-02-13T17:04:24;22.97;;;14.87;;
9536;SDS011;4807;48.024;11.726;2023-02-13T17:07:33;19.60;;;13.60;;
9536;SDS011;4807;48.024;11.726;2023-02-13T17:10:56;22.50;;;14.80;;
9536;SDS011;4807;48.024;11.726;2023-02-13T17:14:11;19.13;;;13.93;;
9536;SDS011;4807;48.024;11.726;2023-02-13T17:17:20;21.43;;;14.43;;
9536;SDS011;4807;48.024;11.726;2023-02-13T17:20:30;22.37;;;13.63;;
9536;SDS011;4807;48.024;11.726;2023-02-13T17:23:40;21.33;;;13.43;;
9536;SDS011;4807;48.024;11.726;2023-02-13T17:26:49;27.70;;;13.53;;
9536;SDS011;4807;48.024;11.726;2023-02-13T17:30:03;22.13;;;13.67;;
9536;SDS011;4807;48.024;11.726;2023-02-13T17:33:15;19.97;;;14.00;;
9536;SDS011;4807;48.024;11.726;2023-02-13T17:36:28;23.20;;;14.27;;
9536;SDS011;4807;48.024;11.726;2023-02-13T17:39:37;22.90;;;13.47;;
9536;SDS011;4807;48.024;11.726;2023-02-13T17:42:46;24.73;;;14.17;;
9536;SDS011;4807;48.024;11.726;2023-02-13T17:46:00;22.60;;;12.53;;
9536;SDS011;4807;48.024;11.726;2023-02-13T17:49:09;21.03;;;13.03;;
9536;SDS011;4807;48.024;11.726;2023-02-13T17:52:18;21.73;;;14.20;;
9536;SDS011;4807;48.024;11.726;2023-02-13T17:55:31;25.57;;;15.23;;
9536;SDS011;4807;48.024;11.726;2023-02-13T17:58:41;23.83;;;15.00;;
9536;SDS011;4807;48.024;11.726;2023-02-13T18:01:50;35.80;;;15.10;;
9536;SDS011;4807;48.024;11.726;2023-02-13T18:04:59;25.23;;;14.17;;
9536;SDS011;4807;48.024;11.726;2023-02-13T18:08:08;23.13;;;13.37;;
9536;SDS011;4807;48.024;11.726;2023-02-13T18:11:17;19.47;;;12.90;;
9536;SDS011;4807;48.024;11.726;2023-02-13T18:14:27;24.30;;;14.67;;
9536;SDS011;4807;48.024;11.726;2023-02-13T18:17:39;22.53;;;13.97;;
9536;SDS011;4807;48.024;11.726;2023-02-13T18:20:53;20.50;;;13.80;;
9536;SDS011;4807;48.024;11.726;2023-02-13T18:24:03;19.57;;;13.20;;
9536;SDS011;4807;48.024;11.726;2023-02-13T18:27:11;22.63;;;13.17;;
9536;SDS011;4807;48.024;11.726;2023-02-13T18:30:20;19.80;;;11.90;;
9536;SDS011;4807;48.024;11.726;2023-02-13T18:33:30;21.10;;;14.57;;
9536;SDS011;4807;48.024;11.726;2023-02-13T18:36:40;23.00;;;13.37;;
9536;SDS011;4807;48.024;11.726;2023-02-13T18:39:48;31.47;;;14.40;;
9536;SDS011;4807;48.024;11.726;2023-02-13T18:42:56;18.53;;;12.13;;
9536;SDS011;4807;48.024;11.726;2023-02-13T18:46:06;19.47;;;12.73;;
9536;SDS011;4807;48.024;11.726;2023-02-13T18:49:16;20.40;;;12.87;;
9536;SDS011;4807;48.024;11.726;2023-02-13T18:52:24;18.60;;;13.50;;
9536;SDS011;4807;48.024;11.726;2023-02-13T18:55:34;18.03;;;12.20;;
9536;SDS011;4807;48.024;11.726;2023-02-13T18:58:55;25.53;;;13.23;;
9536;SDS011;4807;48.024;11.726;2023-02-13T19:02:03;29.97;;;13.33;;
9536;SDS011;4807;48.024;11.726;2023-02-13T19:05:15;34.80;;;14.50;;
9536;SDS011;4807;48.024;11.726;2023-02-13T19:08:24;18.80;;;12.37;;
9536;SDS011;4807;48.024;11.726;2023-02-13T19:11:33;16.93;;;11.63;;
9536;SDS011;4807;48.024;11.726;2023-02-13T19:14:43;16.47;;;11.43;;
9536;SDS011;4807;48.024;11.726;2023-02-13T19:17:53;17.83;;;11.67;;
9536;SDS011;4807;48.024;11.726;2023-02-13T19:21:05;17.17;;;10.83;;
9536;SDS011;4807;48.024;11.726;2023-02-13T19:24:14;18.27;;;12.30;;
9536;SDS011;4807;48.024;11.726;2023-02-13T19:27:24;31.80;;;12.50;;
9536;SDS011;4807;48.024;11.726;2023-02-13T19:30:32;26.30;;;12.53;;
9536;SDS011;4807;48.024;11.726;2023-02-13T19:33:40;73.17;;;13.50;;
9536;SDS011;4807;48.024;11.726;2023-02-13T19:36:51;18.90;;;13.40;;
9536;SDS011;4807;48.024;11.726;2023-02-13T19:39:59;18.23;;;12.80;;